Time;durP1;ratioP1;P1;durP2;ratioP2;P2;SDS_P1;SDS_P2;PMS_P1;PMS_P2;Temp;Humidity;BMP_temperature;BMP_pressure;BME280_temperature;BME280_humidity;BME280_pressure;Samples;Min_cycle;Max_cycle;Signal;HPM_P1;HPM_P2
2023/01/10 00:00:08;;;;;;;59.53;3.83;;;;;;;;;;5070559;28;20455;-67
2023/01/10 00:02:36;;;;;;;60.40;3.63;;;;;;;;;;5071176;28;20467;-67
2023/01/10 00:05:04;;;;;;;59.07;4.10;;;;;;;;;;5071451;28;20477;-67
2023/01/10 00:07:31;;;;;;;58.10;3.10;;;;;;;;;;5071252;28;20966;-67
2023/01/10 00:09:58;;;;;;;59.03;3.50;;;;;;;;;;5070505;28;20456;-66
2023/01/10 00:15:10;;;;;;;58.00;3.20;;;;;;;;;;5071310;28;20546;-66
2023/01/10 00:17:39;;;;;;;58.40;3.33;;;;;;;;;;5071376;28;20439;-67
2023/01/10 00:20:06;;;;;;;58.30;2.90;;;;;;;;;;5072197;28;20900;-67
2023/01/10 00:22:33;;;;;;;58.65;3.25;;;;;;;;;;5074949;28;20541;-66
2023/01/10 00:25:00;;;;;;;58.17;3.30;;;;;;;;;;5075016;28;20220;-66
2023/01/10 00:27:28;;;;;;;60.85;3.10;;;;;;;;;;5074733;28;20580;-67
2023/01/10 00:29:57;;;;;;;57.80;2.80;;;;;;;;;;5074411;28;20217;-66
2023/01/10 00:32:24;;;;;;;58.28;2.90;;;;;;;;;;5074845;28;20471;-67
2023/01/10 00:34:52;;;;;;;58.00;3.20;;;;;;;;;;5074973;28;20221;-66
2023/01/10 00:37:19;;;;;;;57.80;3.30;;;;;;;;;;5074853;28;20447;-67
2023/01/10 00:39:47;;;;;;;57.87;3.40;;;;;;;;;;5073755;28;20833;-66
2023/01/10 00:44:58;;;;;;;57.90;3.43;;;;;;;;;;5074806;28;20506;-67
2023/01/10 00:47:25;;;;;;;58.47;3.20;;;;;;;;;;5074458;28;20462;-67
2023/01/10 00:49:54;;;;;;;58.17;3.40;;;;;;;;;;5073788;28;20843;-66
2023/01/10 00:52:21;;;;;;;57.80;3.50;;;;;;;;;;5074308;28;20482;-66
2023/01/10 00:54:48;;;;;;;58.90;3.57;;;;;;;;;;5074394;28;20487;-67
2023/01/10 00:57:15;;;;;;;58.20;3.67;;;;;;;;;;5074459;28;20466;-67
2023/01/10 00:59:43;;;;;;;58.00;3.40;;;;;;;;;;5073699;28;20444;-67
2023/01/10 01:02:10;;;;;;;59.70;3.50;;;;;;;;;;5074288;28;20467;-67
2023/01/10 01:04:37;;;;;;;57.80;3.63;;;;;;;;;;5074062;28;20451;-67
2023/01/10 01:07:05;;;;;;;58.07;3.57;;;;;;;;;;5073994;28;20831;-67
2023/01/10 01:09:32;;;;;;;58.67;3.60;;;;;;;;;;5073270;28;20443;-67
2023/01/10 01:11:59;;;;;;;57.97;3.60;;;;;;;;;;5073859;28;21000;-67
2023/01/10 01:14:26;;;;;;;57.87;3.40;;;;;;;;;;5074084;28;20483;-67
2023/01/10 01:16:54;;;;;;;58.43;3.70;;;;;;;;;;5073988;28;20451;-67
2023/01/10 01:19:21;;;;;;;57.97;3.67;;;;;;;;;;5073116;28;20451;-67
2023/01/10 01:21:48;;;;;;;58.67;3.53;;;;;;;;;;5074416;28;20471;-67
2023/01/10 01:24:16;;;;;;;61.00;3.93;;;;;;;;;;5073963;28;20816;-67
2023/01/10 01:26:44;;;;;;;60.27;4.07;;;;;;;;;;5073850;28;20539;-66
2023/01/10 01:29:11;;;;;;;58.10;3.77;;;;;;;;;;5073003;28;20486;-67
2023/01/10 01:31:38;;;;;;;59.23;4.23;;;;;;;;;;5073330;28;20836;-67
2023/01/10 01:34:05;;;;;;;58.17;3.80;;;;;;;;;;5073509;28;20487;-67
2023/01/10 01:36:32;;;;;;;58.40;3.77;;;;;;;;;;5073770;28;20448;-67
2023/01/10 01:38:59;;;;;;;62.30;4.30;;;;;;;;;;5072706;28;20940;-67
2023/01/10 01:44:15;;;;;;;58.60;3.90;;;;;;;;;;5073571;28;20426;-67
2023/01/10 01:46:43;;;;;;;58.90;3.50;;;;;;;;;;5073406;28;20455;-67
2023/01/10 01:49:14;;;;;;;58.77;4.27;;;;;;;;;;5072829;28;20447;-67
2023/01/10 01:51:44;;;;;;;59.37;4.00;;;;;;;;;;5072915;28;20477;-67
2023/01/10 01:54:12;;;;;;;58.13;3.53;;;;;;;;;;5073240;28;20482;-67
2023/01/10 01:56:42;;;;;;;58.77;3.47;;;;;;;;;;5073034;28;20451;-67
2023/01/10 01:59:12;;;;;;;58.37;3.73;;;;;;;;;;5072402;28;20454;-67
2023/01/10 02:01:41;;;;;;;58.80;3.57;;;;;;;;;;5073478;28;20474;-67
2023/01/10 02:04:11;;;;;;;57.70;3.30;;;;;;;;;;5073200;28;20537;-67
2023/01/10 02:06:38;;;;;;;57.93;3.33;;;;;;;;;;5073099;28;20443;-67
2023/01/10 02:09:09;;;;;;;60.00;3.80;;;;;;;;;;5072211;28;20448;-67
2023/01/10 02:11:36;;;;;;;59.50;3.30;;;;;;;;;;5072751;28;20463;-67
2023/01/10 02:14:06;;;;;;;57.77;3.33;;;;;;;;;;5072963;28;20479;-67
2023/01/10 02:16:33;;;;;;;58.38;3.33;;;;;;;;;;5069174;28;20759;-67
2023/01/10 02:19:00;;;;;;;58.83;3.53;;;;;;;;;;5071960;28;20205;-67
2023/01/10 02:21:37;;;;;;;57.87;3.53;;;;;;;;;;5072626;28;20847;-67
2023/01/10 02:24:21;;;;;;;59.57;3.40;;;;;;;;;;5072715;28;20442;-67
2023/01/10 02:27:12;;;;;;;59.17;3.70;;;;;;;;;;5072505;28;20449;-67
2023/01/10 02:29:53;;;;;;;58.65;3.70;;;;;;;;;;5072010;28;20812;-67
2023/01/10 02:32:24;;;;;;;58.67;3.90;;;;;;;;;;5072621;28;20225;-67
2023/01/10 02:34:57;;;;;;;58.57;3.67;;;;;;;;;;5072322;28;20487;-67
2023/01/10 02:37:33;;;;;;;58.20;3.70;;;;;;;;;;5072700;28;20538;-67
2023/01/10 02:40:05;;;;;;;58.27;3.70;;;;;;;;;;5071631;28;20443;-67
2023/01/10 02:42:37;;;;;;;58.67;3.50;;;;;;;;;;5071570;28;20471;-67
2023/01/10 02:45:07;;;;;;;58.10;3.53;;;;;;;;;;5072246;28;20447;-67
2023/01/10 02:47:39;;;;;;;57.70;3.10;;;;;;;;;;5072402;28;20460;-67
2023/01/10 02:50:26;;;;;;;58.00;3.80;;;;;;;;;;5071321;28;20902;-67
2023/01/10 02:52:53;;;;;;;58.60;3.50;;;;;;;;;;5072254;28;20827;-67
2023/01/10 02:55:23;;;;;;;57.67;3.70;;;;;;;;;;5072498;28;20229;-67
2023/01/10 02:57:52;;;;;;;59.20;4.10;;;;;;;;;;5071948;28;20205;-67
2023/01/10 03:00:27;;;;;;;59.13;3.70;;;;;;;;;;5071231;28;20451;-67
2023/01/10 03:03:10;;;;;;;61.17;3.95;;;;;;;;;;5072068;28;20613;-67
2023/01/10 03:05:49;;;;;;;58.40;3.80;;;;;;;;;;5072054;28;20669;-67
2023/01/10 03:08:21;;;;;;;58.80;4.00;;;;;;;;;;5071807;28;20231;-67
2023/01/10 03:10:52;;;;;;;59.50;3.80;;;;;;;;;;5071412;28;20455;-67
2023/01/10 03:13:22;;;;;;;59.03;4.10;;;;;;;;;;5071980;28;20467;-67
2023/01/10 03:15:50;;;;;;;59.50;4.40;;;;;;;;;;5072203;28;20196;-67
2023/01/10 03:18:20;;;;;;;58.40;3.63;;;;;;;;;;5071726;28;20454;-67
2023/01/10 03:20:48;;;;;;;60.70;3.87;;;;;;;;;;5071167;28;20205;-67
2023/01/10 03:23:16;;;;;;;60.10;3.63;;;;;;;;;;5071798;28;20463;-67
2023/01/10 03:25:44;;;;;;;59.97;4.00;;;;;;;;;;5071715;28;20481;-67
2023/01/10 03:28:13;;;;;;;58.78;4.00;;;;;;;;;;5071745;28;20538;-67
2023/01/10 03:30:42;;;;;;;58.70;3.63;;;;;;;;;;5071268;28;20212;-67
2023/01/10 03:33:11;;;;;;;61.35;3.90;;;;;;;;;;5071455;28;20225;-67
2023/01/10 03:35:44;;;;;;;60.07;3.43;;;;;;;;;;5071482;28;20221;-67
2023/01/10 03:38:16;;;;;;;61.10;3.97;;;;;;;;;;5071816;28;20453;-67
2023/01/10 03:40:47;;;;;;;60.65;4.50;;;;;;;;;;5071084;28;20454;-67
2023/01/10 03:46:05;;;;;;;59.45;5.03;;;;;;;;;;5071865;28;20832;-67
2023/01/10 03:48:37;;;;;;;60.20;3.80;;;;;;;;;;5071136;28;20209;-67
2023/01/10 03:51:07;;;;;;;57.70;3.83;;;;;;;;;;5071592;28;20474;-67
2023/01/10 03:53:34;;;;;;;58.90;3.97;;;;;;;;;;5072505;28;20527;-67
2023/01/10 03:56:02;;;;;;;64.30;4.75;;;;;;;;;;5075408;28;20446;-67
2023/01/10 03:58:29;;;;;;;61.80;4.63;;;;;;;;;;5075205;28;20204;-67
2023/01/10 04:00:56;;;;;;;59.72;4.55;;;;;;;;;;5075132;28;20449;-67
2023/01/10 04:03:23;;;;;;;60.07;4.33;;;;;;;;;;5075243;28;20229;-67
2023/01/10 04:05:51;;;;;;;61.10;4.07;;;;;;;;;;5075384;28;20439;-67
2023/01/10 04:08:19;;;;;;;60.28;4.80;;;;;;;;;;5075151;28;20603;-67
2023/01/10 04:10:49;;;;;;;59.83;4.60;;;;;;;;;;5074520;28;20208;-67
2023/01/10 04:13:16;;;;;;;61.33;4.77;;;;;;;;;;5075315;28;20233;-67
2023/01/10 04:15:43;;;;;;;59.00;4.13;;;;;;;;;;5075158;28;20491;-67
2023/01/10 04:18:11;;;;;;;61.58;4.68;;;;;;;;;;5075077;28;20968;-67
2023/01/10 04:20:39;;;;;;;59.90;4.70;;;;;;;;;;5074359;28;20201;-67
2023/01/10 04:23:06;;;;;;;59.20;5.03;;;;;;;;;;5074718;28;20475;-67
2023/01/10 04:25:34;;;;;;;61.65;4.40;;;;;;;;;;5074882;28;20450;-67
2023/01/10 04:28:01;;;;;;;61.17;4.70;;;;;;;;;;5075139;28;20205;-67
2023/01/10 04:30:28;;;;;;;61.53;4.93;;;;;;;;;;5074062;28;20465;-67
2023/01/10 04:32:55;;;;;;;59.90;4.20;;;;;;;;;;5074775;28;20467;-67
2023/01/10 04:35:22;;;;;;;59.78;4.63;;;;;;;;;;5074775;28;20979;-67
2023/01/10 04:37:49;;;;;;;60.13;4.20;;;;;;;;;;5074969;28;20201;-67
2023/01/10 04:40:18;;;;;;;59.97;4.40;;;;;;;;;;5074211;28;20454;-67
2023/01/10 04:42:47;;;;;;;58.87;4.30;;;;;;;;;;5074629;28;20482;-67
2023/01/10 04:45:16;;;;;;;62.30;4.90;;;;;;;;;;5074795;28;20447;-68
2023/01/10 04:47:43;;;;;;;59.50;4.40;;;;;;;;;;5074516;28;20304;-67
2023/01/10 04:50:11;;;;;;;60.97;4.87;;;;;;;;;;5073707;28;20205;-67
2023/01/10 04:52:39;;;;;;;60.95;4.55;;;;;;;;;;5074521;28;20466;-67
2023/01/10 04:55:07;;;;;;;59.10;4.63;;;;;;;;;;5074456;28;20236;-67
2023/01/10 05:00:39;;;;;;;61.33;4.70;;;;;;;;;;5070152;28;20819;-67
2023/01/10 05:03:06;;;;;;;63.53;5.10;;;;;;;;;;5073969;28;20475;-67
2023/01/10 05:05:34;;;;;;;59.73;4.80;;;;;;;;;;5073721;28;20208;-67
2023/01/10 05:08:01;;;;;;;59.80;4.47;;;;;;;;;;5074139;28;20455;-67
2023/01/10 05:10:28;;;;;;;62.50;5.00;;;;;;;;;;5073373;28;20209;-67
2023/01/10 05:12:55;;;;;;;62.20;4.83;;;;;;;;;;5073981;28;20473;-67
2023/01/10 05:15:22;;;;;;;63.63;5.55;;;;;;;;;;5074181;28;20483;-67
2023/01/10 05:17:53;;;;;;;62.90;5.50;;;;;;;;;;5073941;28;20205;-67
2023/01/10 05:20:20;;;;;;;62.90;5.15;;;;;;;;;;5073376;28;20858;-67
2023/01/10 05:22:48;;;;;;;61.60;5.20;;;;;;;;;;5073857;28;20225;-67
2023/01/10 05:25:15;;;;;;;61.47;4.75;;;;;;;;;;5073920;28;20465;-67
2023/01/10 05:27:42;;;;;;;62.00;5.20;;;;;;;;;;5073668;28;20643;-67
2023/01/10 05:30:11;;;;;;;63.95;4.70;;;;;;;;;;5073186;28;20864;-67
2023/01/10 05:32:38;;;;;;;66.53;5.43;;;;;;;;;;5073731;28;20231;-68
2023/01/10 05:35:07;;;;;;;63.03;5.30;;;;;;;;;;5073778;28;20498;-67
2023/01/10 05:37:34;;;;;;;61.17;5.13;;;;;;;;;;5073560;28;20448;-68
2023/01/10 05:40:01;;;;;;;69.07;5.47;;;;;;;;;;5072757;28;20232;-68
2023/01/10 05:42:28;;;;;;;62.20;4.93;;;;;;;;;;5073480;28;20705;-67
2023/01/10 05:44:55;;;;;;;61.95;4.25;;;;;;;;;;5073385;28;20442;-68
2023/01/10 05:47:24;;;;;;;65.65;5.28;;;;;;;;;;5073540;28;20205;-67
2023/01/10 05:49:51;;;;;;;63.20;4.80;;;;;;;;;;5072703;28;20251;-67
2023/01/10 05:52:19;;;;;;;63.60;4.93;;;;;;;;;;5073141;28;20236;-68
2023/01/10 05:54:46;;;;;;;64.00;4.50;;;;;;;;;;5073087;28;20225;-67
2023/01/10 05:57:14;;;;;;;62.67;4.90;;;;;;;;;;5073128;28;20455;-68
2023/01/10 06:02:44;;;;;;;65.65;4.80;;;;;;;;;;5069123;28;20431;-67
2023/01/10 06:05:11;;;;;;;66.27;5.90;;;;;;;;;;5073103;28;20201;-68
2023/01/10 06:07:40;;;;;;;66.50;5.47;;;;;;;;;;5072676;28;20451;-67
2023/01/10 06:10:07;;;;;;;67.77;4.93;;;;;;;;;;5072272;28;20451;-67
2023/01/10 06:12:34;;;;;;;67.40;5.70;;;;;;;;;;5072908;28;20474;-67
2023/01/10 06:15:02;;;;;;;63.07;4.93;;;;;;;;;;5072571;28;21002;-67
2023/01/10 06:17:29;;;;;;;68.30;5.65;;;;;;;;;;5072032;28;20451;-67
2023/01/10 06:19:56;;;;;;;71.70;5.73;;;;;;;;;;5072126;28;20205;-68
2023/01/10 06:22:23;;;;;;;68.43;4.63;;;;;;;;;;5072537;28;20471;-67
2023/01/10 06:24:51;;;;;;;60.65;4.60;;;;;;;;;;5072505;28;20678;-68
2023/01/10 06:27:18;;;;;;;66.17;4.60;;;;;;;;;;5072715;28;20228;-68
2023/01/10 06:29:45;;;;;;;62.40;4.40;;;;;;;;;;5071907;28;20444;-69
2023/01/10 06:32:13;;;;;;;62.58;4.10;;;;;;;;;;5071964;28;20463;-67
2023/01/10 06:34:40;;;;;;;60.80;3.80;;;;;;;;;;5072611;28;20205;-68
2023/01/10 06:37:07;;;;;;;66.60;5.32;;;;;;;;;;5072707;28;20565;-68
2023/01/10 06:39:34;;;;;;;64.27;4.20;;;;;;;;;;5071807;28;20609;-68
2023/01/10 06:42:03;;;;;;;64.10;4.37;;;;;;;;;;5072345;28;20467;-68
2023/01/10 06:44:30;;;;;;;64.40;4.82;;;;;;;;;;5072839;28;20820;-68
2023/01/10 06:46:57;;;;;;;66.07;4.23;;;;;;;;;;5072647;28;20209;-68
2023/01/10 06:49:24;;;;;;;62.50;4.20;;;;;;;;;;5071583;28;20454;-68
2023/01/10 06:51:51;;;;;;;66.90;4.33;;;;;;;;;;5072201;28;20984;-68
2023/01/10 06:54:18;;;;;;;62.78;4.25;;;;;;;;;;5072229;28;20443;-68
2023/01/10 06:56:48;;;;;;;69.43;6.07;;;;;;;;;;5071994;28;20225;-68
2023/01/10 06:59:17;;;;;;;65.70;4.30;;;;;;;;;;5071523;28;20529;-68
2023/01/10 07:01:44;;;;;;;63.80;4.30;;;;;;;;;;5072159;28;20225;-68
2023/01/10 07:04:11;;;;;;;60.72;4.50;;;;;;;;;;5072115;28;20457;-68
2023/01/10 07:06:38;;;;;;;59.93;4.20;;;;;;;;;;5072084;28;20223;-68
2023/01/10 07:09:05;;;;;;;63.90;4.30;;;;;;;;;;5071311;28;20447;-68
2023/01/10 07:11:32;;;;;;;65.03;5.28;;;;;;;;;;5071722;28;20261;-68
2023/01/10 07:13:59;;;;;;;65.97;5.17;;;;;;;;;;5072060;28;20227;-67
2023/01/10 07:16:28;;;;;;;61.70;4.45;;;;;;;;;;5072283;28;20483;-68
2023/01/10 07:18:55;;;;;;;60.50;4.15;;;;;;;;;;5071188;28;20201;-68
2023/01/10 07:21:22;;;;;;;66.70;4.50;;;;;;;;;;5071751;28;20678;-68
2023/01/10 07:23:49;;;;;;;62.00;4.30;;;;;;;;;;5071754;28;20447;-68
2023/01/10 07:26:18;;;;;;;63.40;4.07;;;;;;;;;;5072019;28;20948;-68
2023/01/10 07:28:45;;;;;;;66.23;4.60;;;;;;;;;;5070871;28;20546;-68
2023/01/10 07:31:12;;;;;;;63.10;5.87;;;;;;;;;;5071547;28;20952;-68
2023/01/10 07:33:40;;;;;;;61.73;4.00;;;;;;;;;;5071859;28;20443;-68
2023/01/10 07:36:08;;;;;;;61.37;4.60;;;;;;;;;;5071476;28;20475;-68
2023/01/10 07:38:35;;;;;;;64.07;4.37;;;;;;;;;;5070966;28;20979;-67
2023/01/10 07:41:02;;;;;;;65.10;4.30;;;;;;;;;;5071871;28;20450;-68
2023/01/10 07:43:30;;;;;;;64.45;5.00;;;;;;;;;;5071536;28;20982;-68
2023/01/10 07:45:58;;;;;;;60.27;3.90;;;;;;;;;;5071978;28;20201;-68
2023/01/10 07:48:26;;;;;;;64.97;4.57;;;;;;;;;;5071486;28;20447;-68
2023/01/10 07:50:57;;;;;;;61.40;4.40;;;;;;;;;;5070912;28;21007;-67
2023/01/10 07:53:24;;;;;;;61.20;4.47;;;;;;;;;;5071453;28;20228;-68
2023/01/10 07:55:51;;;;;;;66.10;4.80;;;;;;;;;;5071527;28;20487;-68
2023/01/10 07:58:19;;;;;;;61.57;4.23;;;;;;;;;;5071449;28;20443;-68
2023/01/10 08:00:48;;;;;;;63.47;4.00;;;;;;;;;;5070919;28;20444;-68
2023/01/10 08:03:15;;;;;;;62.17;4.73;;;;;;;;;;5071869;28;20503;-67
2023/01/10 08:05:42;;;;;;;69.43;4.43;;;;;;;;;;5071357;28;20451;-68
2023/01/10 08:08:11;;;;;;;59.43;3.93;;;;;;;;;;5071513;28;20819;-67
2023/01/10 08:10:39;;;;;;;63.57;4.90;;;;;;;;;;5070796;28;20444;-68
2023/01/10 08:13:06;;;;;;;69.80;4.73;;;;;;;;;;5071280;28;20999;-68
2023/01/10 08:15:33;;;;;;;67.50;5.43;;;;;;;;;;5071407;28;20483;-68
2023/01/10 08:18:01;;;;;;;64.37;4.10;;;;;;;;;;5071224;28;20973;-68
2023/01/10 08:20:28;;;;;;;64.80;5.17;;;;;;;;;;5070789;28;20453;-68
2023/01/10 08:22:57;;;;;;;62.20;4.27;;;;;;;;;;5071321;28;20467;-67
2023/01/10 08:25:26;;;;;;;66.40;4.33;;;;;;;;;;5071261;28;20463;-68
2023/01/10 08:27:53;;;;;;;62.10;4.10;;;;;;;;;;5071237;28;20447;-68
2023/01/10 08:30:20;;;;;;;62.97;4.23;;;;;;;;;;5070220;28;20454;-68
2023/01/10 08:32:47;;;;;;;61.47;3.93;;;;;;;;;;5070768;28;20467;-68
2023/01/10 08:35:14;;;;;;;65.40;4.70;;;;;;;;;;5071182;28;20455;-68
2023/01/10 08:37:41;;;;;;;61.33;4.10;;;;;;;;;;5071036;28;20985;-68
2023/01/10 08:40:09;;;;;;;64.50;5.50;;;;;;;;;;5070609;28;20451;-68
2023/01/10 08:42:37;;;;;;;62.77;4.20;;;;;;;;;;5074791;28;20471;-68
2023/01/10 08:45:04;;;;;;;59.80;3.87;;;;;;;;;;5074545;28;20984;-68
2023/01/10 08:47:32;;;;;;;63.47;4.97;;;;;;;;;;5074755;28;20446;-68
2023/01/10 08:49:59;;;;;;;65.13;4.77;;;;;;;;;;5073669;28;20451;-68
2023/01/10 08:52:26;;;;;;;61.83;3.97;;;;;;;;;;5074517;28;20467;-68
2023/01/10 08:54:53;;;;;;;62.50;4.20;;;;;;;;;;5074736;28;20454;-68
2023/01/10 08:57:20;;;;;;;61.10;4.30;;;;;;;;;;5074309;28;20483;-68
2023/01/10 08:59:48;;;;;;;65.00;4.27;;;;;;;;;;5073468;28;20949;-68
2023/01/10 09:02:15;;;;;;;62.93;4.43;;;;;;;;;;5074380;28;20472;-68
2023/01/10 09:04:43;;;;;;;61.27;3.73;;;;;;;;;;5074216;28;20451;-68
2023/01/10 09:07:10;;;;;;;62.83;4.57;;;;;;;;;;5074538;28;20568;-68
2023/01/10 09:09:37;;;;;;;62.00;4.03;;;;;;;;;;5073576;28;20469;-68
2023/01/10 09:12:53;;;;;;;67.83;5.33;;;;;;;;;;5074010;28;20464;-68
2023/01/10 09:14:53;;;;;;;66.50;4.10;;;;;;;;;;5073984;28;21005;-68
2023/01/10 09:17:20;;;;;;;67.07;4.50;;;;;;;;;;5074053;28;20506;-68
2023/01/10 09:19:47;;;;;;;60.63;3.53;;;;;;;;;;5073188;28;20961;-68
2023/01/10 09:22:14;;;;;;;64.33;4.30;;;;;;;;;;5074136;28;20467;-68
2023/01/10 09:24:43;;;;;;;60.50;3.60;;;;;;;;;;5073707;28;20463;-68
2023/01/10 09:27:10;;;;;;;67.00;4.67;;;;;;;;;;5074105;28;20444;-69
2023/01/10 09:29:37;;;;;;;63.70;3.83;;;;;;;;;;5073239;28;20454;-68
2023/01/10 09:32:06;;;;;;;59.00;3.77;;;;;;;;;;5073683;28;20467;-69
2023/01/10 09:34:33;;;;;;;62.77;4.53;;;;;;;;;;5074162;28;20486;-68
2023/01/10 09:37:00;;;;;;;63.60;4.20;;;;;;;;;;5073613;28;20476;-68
2023/01/10 09:39:28;;;;;;;64.67;4.00;;;;;;;;;;5072755;28;20463;-68
2023/01/10 09:42:16;;;;;;;60.10;4.23;;;;;;;;;;5073694;28;20467;-68
2023/01/10 09:44:50;;;;;;;61.57;4.30;;;;;;;;;;5068472;28;20466;-68
2023/01/10 09:47:24;;;;;;;62.97;4.37;;;;;;;;;;5073497;28;20507;-68
2023/01/10 09:49:57;;;;;;;65.60;4.20;;;;;;;;;;5072600;28;20776;-68
2023/01/10 09:52:26;;;;;;;65.27;4.10;;;;;;;;;;5073136;28;20991;-68
2023/01/10 09:54:55;;;;;;;64.50;3.47;;;;;;;;;;5073303;28;20823;-68
2023/01/10 09:57:23;;;;;;;60.70;3.67;;;;;;;;;;5073390;28;20494;-68
2023/01/10 09:59:52;;;;;;;64.80;4.40;;;;;;;;;;5072449;28;20439;-68
2023/01/10 10:02:26;;;;;;;63.77;5.03;;;;;;;;;;5073026;28;20510;-68
2023/01/10 10:05:01;;;;;;;61.23;4.30;;;;;;;;;;5073478;28;20454;-68
2023/01/10 10:07:28;;;;;;;61.47;4.50;;;;;;;;;;5073292;28;20439;-68
2023/01/10 10:09:55;;;;;;;60.30;3.90;;;;;;;;;;5072318;28;20540;-68
2023/01/10 10:12:27;;;;;;;64.27;4.40;;;;;;;;;;5072889;28;20478;-68
2023/01/10 10:15:01;;;;;;;60.07;4.67;;;;;;;;;;5072812;28;20456;-68
2023/01/10 10:17:42;;;;;;;63.07;4.13;;;;;;;;;;5073007;28;20493;-68
2023/01/10 10:20:17;;;;;;;68.53;4.40;;;;;;;;;;5072067;28;20457;-68
2023/01/10 10:22:50;;;;;;;60.67;4.40;;;;;;;;;;5072719;28;20466;-68
2023/01/10 10:25:29;;;;;;;63.00;4.77;;;;;;;;;;5072839;28;20463;-68
2023/01/10 10:28:04;;;;;;;59.87;3.87;;;;;;;;;;5072767;28;20939;-68
2023/01/10 10:30:36;;;;;;;59.30;3.90;;;;;;;;;;5072146;28;20443;-68
2023/01/10 10:33:25;;;;;;;69.50;4.80;;;;;;;;;;5072429;28;20489;-67
2023/01/10 10:35:53;;;;;;;61.90;4.57;;;;;;;;;;5072368;28;20465;-69
2023/01/10 10:38:23;;;;;;;60.70;4.80;;;;;;;;;;5072491;28;20447;-68
2023/01/10 10:40:50;;;;;;;59.47;4.13;;;;;;;;;;5071685;28;20940;-68
2023/01/10 10:43:20;;;;;;;63.37;4.73;;;;;;;;;;5072356;28;20471;-68
2023/01/10 10:45:48;;;;;;;68.93;4.60;;;;;;;;;;5072199;28;20451;-68
2023/01/10 10:48:17;;;;;;;59.30;3.67;;;;;;;;;;5072386;28;20448;-68
2023/01/10 10:50:51;;;;;;;62.60;4.20;;;;;;;;;;5071796;28;20453;-68
2023/01/10 10:53:18;;;;;;;64.10;4.30;;;;;;;;;;5072083;28;20478;-68
2023/01/10 10:55:45;;;;;;;69.00;3.97;;;;;;;;;;5072346;28;20492;-68
2023/01/10 10:58:14;;;;;;;66.60;4.80;;;;;;;;;;5072042;28;20866;-68
2023/01/10 11:00:41;;;;;;;59.77;3.73;;;;;;;;;;5071340;28;20878;-68
2023/01/10 11:03:15;;;;;;;61.57;4.43;;;;;;;;;;5071324;28;20783;-68
2023/01/10 11:05:43;;;;;;;60.13;3.97;;;;;;;;;;5072395;28;20542;-68
2023/01/10 11:08:13;;;;;;;63.20;4.20;;;;;;;;;;5071987;28;20443;-68
2023/01/10 11:10:41;;;;;;;60.00;3.80;;;;;;;;;;5071290;28;20453;-68
2023/01/10 11:13:15;;;;;;;61.23;4.57;;;;;;;;;;5071882;28;20463;-68
2023/01/10 11:15:43;;;;;;;61.87;3.57;;;;;;;;;;5072098;28;20477;-68
2023/01/10 11:18:12;;;;;;;62.40;3.70;;;;;;;;;;5071869;28;20479;-68
2023/01/10 11:20:47;;;;;;;60.30;3.93;;;;;;;;;;5071233;28;20459;-68
2023/01/10 11:23:22;;;;;;;64.40;3.60;;;;;;;;;;5071797;28;20474;-68
2023/01/10 11:25:50;;;;;;;62.10;4.20;;;;;;;;;;5071607;28;20462;-68
2023/01/10 11:28:20;;;;;;;72.93;5.37;;;;;;;;;;5071558;28;20948;-68
2023/01/10 11:30:48;;;;;;;60.27;4.20;;;;;;;;;;5071214;28;20447;-68
2023/01/10 11:33:19;;;;;;;63.53;5.13;;;;;;;;;;5071840;28;20762;-68
2023/01/10 11:35:57;;;;;;;61.70;4.40;;;;;;;;;;5071616;28;20955;-68
2023/01/10 11:38:28;;;;;;;60.97;3.70;;;;;;;;;;5071691;28;20486;-68
2023/01/10 11:40:56;;;;;;;58.37;3.87;;;;;;;;;;5071370;28;20447;-68
2023/01/10 11:43:25;;;;;;;62.53;3.40;;;;;;;;;;5071627;28;20467;-68
2023/01/10 11:45:54;;;;;;;60.77;4.10;;;;;;;;;;5071509;28;20943;-68
2023/01/10 11:48:23;;;;;;;61.23;3.63;;;;;;;;;;5071380;28;20935;-68
2023/01/10 11:50:51;;;;;;;63.27;4.17;;;;;;;;;;5070681;28;20455;-68
2023/01/10 11:53:38;;;;;;;64.27;4.20;;;;;;;;;;5071569;28;20467;-68
2023/01/10 11:56:06;;;;;;;64.80;4.07;;;;;;;;;;5071619;28;20455;-68
2023/01/10 11:58:34;;;;;;;66.37;4.33;;;;;;;;;;5070587;28;20452;-67
2023/01/10 12:01:02;;;;;;;62.33;4.70;;;;;;;;;;5071387;28;20973;-68
2023/01/10 12:03:31;;;;;;;59.67;3.43;;;;;;;;;;5071290;28;20475;-68
2023/01/10 12:05:59;;;;;;;60.63;4.97;;;;;;;;;;5071553;28;20808;-68
2023/01/10 12:08:28;;;;;;;61.17;4.30;;;;;;;;;;5071276;28;20452;-68
2023/01/10 12:11:01;;;;;;;61.33;3.70;;;;;;;;;;5070886;28;20451;-68
2023/01/10 12:13:29;;;;;;;61.40;4.00;;;;;;;;;;5071131;28;20471;-68
2023/01/10 12:16:11;;;;;;;59.43;3.20;;;;;;;;;;5065605;28;20447;-67
2023/01/10 12:18:38;;;;;;;62.90;3.90;;;;;;;;;;5053737;28;20439;-68
2023/01/10 12:21:05;;;;;;;62.50;4.07;;;;;;;;;;5054960;28;20790;-68
2023/01/10 12:23:38;;;;;;;61.00;3.63;;;;;;;;;;5053741;28;20828;-68
2023/01/10 12:26:07;;;;;;;63.33;3.93;;;;;;;;;;5054794;28;20825;-68
2023/01/10 12:28:36;;;;;;;58.87;3.43;;;;;;;;;;5054359;28;20444;-67
2023/01/10 12:31:04;;;;;;;60.43;3.37;;;;;;;;;;5055049;28;20440;-68
2023/01/10 12:33:33;;;;;;;63.50;4.17;;;;;;;;;;5054878;28;20477;-68
2023/01/10 12:36:04;;;;;;;61.67;3.73;;;;;;;;;;5054918;28;20454;-68
2023/01/10 12:44:13;;;;;;;61.13;4.43;;;;;;;;;;5054793;28;20424;-68
2023/01/10 12:46:43;;;;;;;62.70;5.40;;;;;;;;;;5054858;28;20451;-68
2023/01/10 12:49:16;;;;;;;63.17;4.23;;;;;;;;;;5054179;28;20444;-68
2023/01/10 12:51:44;;;;;;;64.80;4.10;;;;;;;;;;5054600;28;20550;-68
2023/01/10 12:54:15;;;;;;;63.27;4.30;;;;;;;;;;5054641;28;20518;-68
2023/01/10 12:56:44;;;;;;;66.83;3.97;;;;;;;;;;5054914;28;20531;-68
2023/01/10 12:59:15;;;;;;;59.90;4.20;;;;;;;;;;5053603;28;20456;-68
2023/01/10 13:01:43;;;;;;;61.50;3.77;;;;;;;;;;5054454;28;20468;-68
2023/01/10 13:04:11;;;;;;;61.67;3.70;;;;;;;;;;5054491;28;20444;-69
2023/01/10 13:06:40;;;;;;;59.20;3.47;;;;;;;;;;5054264;28;20493;-68
2023/01/10 13:09:08;;;;;;;64.70;4.10;;;;;;;;;;5053489;28;20463;-68
2023/01/10 13:11:37;;;;;;;63.53;3.90;;;;;;;;;;5054015;28;20998;-68
2023/01/10 13:14:06;;;;;;;59.17;3.93;;;;;;;;;;5053996;28;20543;-68
2023/01/10 13:16:37;;;;;;;62.07;3.90;;;;;;;;;;5054207;28;20903;-68
2023/01/10 13:19:06;;;;;;;65.40;4.83;;;;;;;;;;5053407;28;20452;-68
2023/01/10 13:21:34;;;;;;;59.57;3.40;;;;;;;;;;5053883;28;20484;-69
2023/01/10 13:24:02;;;;;;;62.50;3.73;;;;;;;;;;5053811;28;20456;-68
2023/01/10 13:26:44;;;;;;;60.47;3.57;;;;;;;;;;5053266;28;20566;-68
2023/01/10 13:29:18;;;;;;;58.87;3.43;;;;;;;;;;5053318;28;20813;-68
2023/01/10 13:31:45;;;;;;;62.13;3.67;;;;;;;;;;5053684;28;21019;-68
2023/01/10 13:34:13;;;;;;;60.27;3.57;;;;;;;;;;5053836;28;20448;-68
2023/01/10 13:36:41;;;;;;;61.80;3.40;;;;;;;;;;5053627;28;20454;-68
2023/01/10 13:39:20;;;;;;;60.60;3.40;;;;;;;;;;5053445;28;20444;-68
2023/01/10 13:45:12;;;;;;;57.67;3.10;;;;;;;;;;5053659;28;20404;-68
2023/01/10 13:47:59;;;;;;;62.80;3.10;;;;;;;;;;5053481;28;20974;-68
2023/01/10 13:50:45;;;;;;;62.40;3.73;;;;;;;;;;5053016;28;20503;-68
2023/01/10 13:53:31;;;;;;;58.17;3.10;;;;;;;;;;5053251;28;21035;-68
2023/01/10 13:55:58;;;;;;;63.87;3.97;;;;;;;;;;5053452;28;20444;-68
2023/01/10 14:04:20;;;;;;;61.20;3.97;;;;;;;;;;5053225;28;20777;-68
2023/01/10 14:06:52;;;;;;;61.60;3.40;;;;;;;;;;5053314;28;20450;-68
2023/01/10 14:09:38;;;;;;;61.43;3.47;;;;;;;;;;5052285;28;20452;-68
2023/01/10 14:12:06;;;;;;;58.80;3.67;;;;;;;;;;5052894;28;20559;-68
2023/01/10 14:14:36;;;;;;;60.37;3.27;;;;;;;;;;5053156;28;20842;-68
2023/01/10 14:17:12;;;;;;;62.70;3.87;;;;;;;;;;5053087;28;20448;-68
2023/01/10 14:19:43;;;;;;;59.57;3.03;;;;;;;;;;5052099;28;20452;-68
2023/01/10 14:22:22;;;;;;;58.73;3.30;;;;;;;;;;5052896;28;20472;-68
2023/01/10 14:24:51;;;;;;;63.13;3.93;;;;;;;;;;5052551;28;20985;-68
2023/01/10 14:27:19;;;;;;;61.47;3.50;;;;;;;;;;5052807;28;20445;-68
2023/01/10 14:29:48;;;;;;;62.27;3.87;;;;;;;;;;5052130;28;20921;-68
2023/01/10 14:32:18;;;;;;;60.20;3.83;;;;;;;;;;5052626;28;20467;-68
2023/01/10 14:34:48;;;;;;;59.70;3.37;;;;;;;;;;5052879;28;20444;-68
2023/01/10 14:37:22;;;;;;;65.33;3.77;;;;;;;;;;5052392;28;20606;-68
2023/01/10 14:39:52;;;;;;;62.10;3.80;;;;;;;;;;5051162;28;20452;-68
2023/01/10 14:42:19;;;;;;;59.30;3.23;;;;;;;;;;5052602;28;20551;-68
2023/01/10 14:44:50;;;;;;;62.13;3.70;;;;;;;;;;5052351;28;20448;-68
2023/01/10 14:47:27;;;;;;;69.53;4.63;;;;;;;;;;5052424;28;20452;-68
2023/01/10 14:49:56;;;;;;;60.57;3.23;;;;;;;;;;5051857;28;20428;-68
2023/01/10 14:52:24;;;;;;;61.00;4.07;;;;;;;;;;5052312;28;20494;-68
2023/01/10 14:54:55;;;;;;;61.67;3.23;;;;;;;;;;5052138;28;20961;-68
2023/01/10 14:57:23;;;;;;;59.67;3.87;;;;;;;;;;5052246;28;21000;-68
2023/01/10 14:59:50;;;;;;;64.70;4.00;;;;;;;;;;5051416;28;20458;-68
2023/01/10 15:02:23;;;;;;;59.00;3.00;;;;;;;;;;5051988;28;20476;-68
2023/01/10 15:04:53;;;;;;;60.80;3.10;;;;;;;;;;5052229;28;20518;-68
2023/01/10 15:07:22;;;;;;;61.93;3.33;;;;;;;;;;5052121;28;20456;-68
2023/01/10 15:09:50;;;;;;;59.70;3.37;;;;;;;;;;5051446;28;20451;-68
2023/01/10 15:12:19;;;;;;;60.43;3.23;;;;;;;;;;5051915;28;20543;-68
2023/01/10 15:14:46;;;;;;;61.60;3.93;;;;;;;;;;5051743;28;20494;-68